sensor_id;sensor_type;location;lat;lon;timestamp;P1;durP1;ratioP1;P2;durP2;ratioP2
49177;SDS011;35016;55.674;37.468;2022-11-09T00:01:00;17.02;;;9.48;;
49177;SDS011;35016;55.674;37.468;2022-11-09T00:03:34;14.68;;;9.27;;
49177;SDS011;35016;55.674;37.468;2022-11-09T00:06:01;15.35;;;8.98;;
49177;SDS011;35016;55.674;37.468;2022-11-09T00:08:28;15.27;;;9.13;;
49177;SDS011;35016;55.674;37.468;2022-11-09T00:11:00;13.82;;;8.77;;
49177;SDS011;35016;55.674;37.468;2022-11-09T00:13:37;15.30;;;9.32;;
49177;SDS011;35016;55.674;37.468;2022-11-09T00:16:06;14.57;;;9.30;;
49177;SDS011;35016;55.674;37.468;2022-11-09T00:18:34;14.80;;;8.90;;
49177;SDS011;35016;55.674;37.468;2022-11-09T00:21:09;16.80;;;9.77;;
49177;SDS011;35016;55.674;37.468;2022-11-09T00:23:38;16.08;;;10.10;;
49177;SDS011;35016;55.674;37.468;2022-11-09T00:26:06;15.38;;;8.77;;
49177;SDS011;35016;55.674;37.468;2022-11-09T00:28:34;16.60;;;9.63;;
49177;SDS011;35016;55.674;37.468;2022-11-09T00:31:02;15.40;;;9.55;;
49177;SDS011;35016;55.674;37.468;2022-11-09T00:33:31;16.58;;;10.35;;
49177;SDS011;35016;55.674;37.468;2022-11-09T00:36:02;15.63;;;10.88;;
49177;SDS011;35016;55.674;37.468;2022-11-09T00:38:36;16.60;;;9.27;;
49177;SDS011;35016;55.674;37.468;2022-11-09T00:41:06;16.75;;;9.27;;
49177;SDS011;35016;55.674;37.468;2022-11-09T00:43:34;16.58;;;9.68;;
49177;SDS011;35016;55.674;37.468;2022-11-09T00:46:02;15.25;;;11.40;;
49177;SDS011;35016;55.674;37.468;2022-11-09T00:48:29;18.27;;;11.25;;
49177;SDS011;35016;55.674;37.468;2022-11-09T00:50:59;16.00;;;9.27;;
49177;SDS011;35016;55.674;37.468;2022-11-09T00:53:28;17.63;;;10.70;;
49177;SDS011;35016;55.674;37.468;2022-11-09T00:56:00;14.23;;;9.30;;
49177;SDS011;35016;55.674;37.468;2022-11-09T00:58:34;17.42;;;9.75;;
49177;SDS011;35016;55.674;37.468;2022-11-09T01:01:35;17.88;;;11.05;;
49177;SDS011;35016;55.674;37.468;2022-11-09T01:03:56;15.70;;;9.02;;
49177;SDS011;35016;55.674;37.468;2022-11-09T01:06:24;17.33;;;11.63;;
49177;SDS011;35016;55.674;37.468;2022-11-09T01:08:52;20.55;;;11.18;;
49177;SDS011;35016;55.674;37.468;2022-11-09T01:11:19;15.25;;;10.55;;
49177;SDS011;35016;55.674;37.468;2022-11-09T01:13:50;15.88;;;11.05;;
49177;SDS011;35016;55.674;37.468;2022-11-09T01:16:18;19.80;;;10.45;;
49177;SDS011;35016;55.674;37.468;2022-11-09T01:18:51;19.33;;;11.52;;
49177;SDS011;35016;55.674;37.468;2022-11-09T01:21:19;18.10;;;11.68;;
49177;SDS011;35016;55.674;37.468;2022-11-09T01:23:46;17.05;;;10.85;;
49177;SDS011;35016;55.674;37.468;2022-11-09T01:26:14;19.13;;;12.10;;
49177;SDS011;35016;55.674;37.468;2022-11-09T01:28:41;18.50;;;9.88;;
49177;SDS011;35016;55.674;37.468;2022-11-09T01:31:14;15.50;;;10.50;;
49177;SDS011;35016;55.674;37.468;2022-11-09T01:33:43;17.35;;;11.45;;
49177;SDS011;35016;55.674;37.468;2022-11-09T01:36:11;15.82;;;10.40;;
49177;SDS011;35016;55.674;37.468;2022-11-09T01:38:39;20.77;;;11.90;;
49177;SDS011;35016;55.674;37.468;2022-11-09T01:41:08;18.50;;;11.57;;
49177;SDS011;35016;55.674;37.468;2022-11-09T01:43:39;20.33;;;11.88;;
49177;SDS011;35016;55.674;37.468;2022-11-09T01:51:34;19.33;;;10.02;;
49177;SDS011;35016;55.674;37.468;2022-11-09T01:54:03;18.85;;;10.80;;
49177;SDS011;35016;55.674;37.468;2022-11-09T01:56:36;14.82;;;10.02;;
49177;SDS011;35016;55.674;37.468;2022-11-09T01:59:05;19.17;;;12.82;;
49177;SDS011;35016;55.674;37.468;2022-11-09T02:01:38;16.80;;;10.77;;
49177;SDS011;35016;55.674;37.468;2022-11-09T02:04:12;19.05;;;12.73;;
49177;SDS011;35016;55.674;37.468;2022-11-09T02:06:45;15.45;;;9.93;;
49177;SDS011;35016;55.674;37.468;2022-11-09T02:11:53;19.08;;;10.52;;
49177;SDS011;35016;55.674;37.468;2022-11-09T02:14:20;20.30;;;10.57;;
49177;SDS011;35016;55.674;37.468;2022-11-09T02:16:49;18.15;;;13.00;;
49177;SDS011;35016;55.674;37.468;2022-11-09T02:19:16;17.90;;;12.18;;
49177;SDS011;35016;55.674;37.468;2022-11-09T02:21:43;16.85;;;11.15;;
49177;SDS011;35016;55.674;37.468;2022-11-09T02:24:11;15.65;;;10.38;;
49177;SDS011;35016;55.674;37.468;2022-11-09T02:26:46;16.27;;;10.63;;
49177;SDS011;35016;55.674;37.468;2022-11-09T02:29:20;16.77;;;9.10;;
49177;SDS011;35016;55.674;37.468;2022-11-09T02:31:56;16.17;;;10.48;;
49177;SDS011;35016;55.674;37.468;2022-11-09T02:34:28;17.17;;;9.68;;
49177;SDS011;35016;55.674;37.468;2022-11-09T02:36:56;15.52;;;9.73;;
49177;SDS011;35016;55.674;37.468;2022-11-09T02:39:24;16.13;;;8.80;;
49177;SDS011;35016;55.674;37.468;2022-11-09T02:42:14;15.45;;;8.85;;
49177;SDS011;35016;55.674;37.468;2022-11-09T02:44:54;18.20;;;10.00;;
49177;SDS011;35016;55.674;37.468;2022-11-09T02:47:24;16.40;;;10.35;;
49177;SDS011;35016;55.674;37.468;2022-11-09T02:49:51;14.57;;;9.38;;
49177;SDS011;35016;55.674;37.468;2022-11-09T02:52:18;18.88;;;11.07;;
49177;SDS011;35016;55.674;37.468;2022-11-09T02:54:45;17.20;;;10.25;;
49177;SDS011;35016;55.674;37.468;2022-11-09T02:57:13;15.93;;;9.30;;
49177;SDS011;35016;55.674;37.468;2022-11-09T02:59:41;12.85;;;7.85;;
49177;SDS011;35016;55.674;37.468;2022-11-09T03:05:25;12.10;;;7.10;;
49177;SDS011;35016;55.674;37.468;2022-11-09T03:07:52;12.82;;;8.40;;
49177;SDS011;35016;55.674;37.468;2022-11-09T03:10:20;14.98;;;8.50;;
49177;SDS011;35016;55.674;37.468;2022-11-09T03:12:48;13.93;;;9.18;;
49177;SDS011;35016;55.674;37.468;2022-11-09T03:15:15;13.77;;;7.85;;
49177;SDS011;35016;55.674;37.468;2022-11-09T03:17:44;14.60;;;7.05;;
49177;SDS011;35016;55.674;37.468;2022-11-09T03:20:11;14.20;;;8.60;;
49177;SDS011;35016;55.674;37.468;2022-11-09T03:22:40;16.85;;;9.68;;
49177;SDS011;35016;55.674;37.468;2022-11-09T03:25:07;15.63;;;8.82;;
49177;SDS011;35016;55.674;37.468;2022-11-09T03:27:35;19.10;;;9.23;;
49177;SDS011;35016;55.674;37.468;2022-11-09T03:30:04;16.05;;;8.82;;
49177;SDS011;35016;55.674;37.468;2022-11-09T03:32:32;15.45;;;8.40;;
49177;SDS011;35016;55.674;37.468;2022-11-09T03:34:59;15.82;;;8.95;;
49177;SDS011;35016;55.674;37.468;2022-11-09T03:37:26;14.55;;;8.95;;
49177;SDS011;35016;55.674;37.468;2022-11-09T03:39:53;16.15;;;8.43;;
49177;SDS011;35016;55.674;37.468;2022-11-09T03:42:20;13.45;;;7.90;;
49177;SDS011;35016;55.674;37.468;2022-11-09T03:44:47;12.93;;;7.75;;
49177;SDS011;35016;55.674;37.468;2022-11-09T03:47:14;13.05;;;7.95;;
49177;SDS011;35016;55.674;37.468;2022-11-09T03:49:41;18.23;;;9.95;;
49177;SDS011;35016;55.674;37.468;2022-11-09T03:52:08;15.60;;;9.55;;
49177;SDS011;35016;55.674;37.468;2022-11-09T03:54:35;13.95;;;8.25;;
49177;SDS011;35016;55.674;37.468;2022-11-09T03:57:03;14.23;;;7.57;;
49177;SDS011;35016;55.674;37.468;2022-11-09T03:59:30;16.20;;;8.27;;
49177;SDS011;35016;55.674;37.468;2022-11-09T04:01:57;13.68;;;8.93;;
49177;SDS011;35016;55.674;37.468;2022-11-09T04:04:24;17.38;;;10.82;;
49177;SDS011;35016;55.674;37.468;2022-11-09T04:06:51;14.70;;;8.93;;
49177;SDS011;35016;55.674;37.468;2022-11-09T04:09:19;14.77;;;7.80;;
49177;SDS011;35016;55.674;37.468;2022-11-09T04:11:46;13.10;;;8.68;;
49177;SDS011;35016;55.674;37.468;2022-11-09T04:14:13;14.13;;;9.05;;
49177;SDS011;35016;55.674;37.468;2022-11-09T04:16:40;16.23;;;9.73;;
49177;SDS011;35016;55.674;37.468;2022-11-09T04:19:08;14.82;;;8.60;;
49177;SDS011;35016;55.674;37.468;2022-11-09T04:21:35;18.73;;;10.65;;
49177;SDS011;35016;55.674;37.468;2022-11-09T04:24:02;14.68;;;7.30;;
49177;SDS011;35016;55.674;37.468;2022-11-09T04:26:30;13.63;;;8.68;;
49177;SDS011;35016;55.674;37.468;2022-11-09T04:28:57;14.00;;;8.40;;
49177;SDS011;35016;55.674;37.468;2022-11-09T04:31:24;15.93;;;9.90;;
49177;SDS011;35016;55.674;37.468;2022-11-09T04:33:53;14.20;;;8.93;;
49177;SDS011;35016;55.674;37.468;2022-11-09T04:36:21;13.88;;;8.65;;
49177;SDS011;35016;55.674;37.468;2022-11-09T04:38:54;16.35;;;9.07;;
49177;SDS011;35016;55.674;37.468;2022-11-09T04:41:21;16.73;;;9.00;;
49177;SDS011;35016;55.674;37.468;2022-11-09T04:43:48;14.00;;;8.60;;
49177;SDS011;35016;55.674;37.468;2022-11-09T04:46:15;13.52;;;8.35;;
49177;SDS011;35016;55.674;37.468;2022-11-09T04:48:42;13.00;;;7.97;;
49177;SDS011;35016;55.674;37.468;2022-11-09T04:51:11;17.67;;;9.13;;
49177;SDS011;35016;55.674;37.468;2022-11-09T04:53:39;14.82;;;9.23;;
49177;SDS011;35016;55.674;37.468;2022-11-09T04:58:58;12.90;;;8.48;;
49177;SDS011;35016;55.674;37.468;2022-11-09T05:01:25;14.30;;;8.65;;
49177;SDS011;35016;55.674;37.468;2022-11-09T05:03:53;13.18;;;9.32;;
49177;SDS011;35016;55.674;37.468;2022-11-09T05:06:20;21.13;;;9.65;;
49177;SDS011;35016;55.674;37.468;2022-11-09T05:09:00;14.15;;;8.10;;
49177;SDS011;35016;55.674;37.468;2022-11-09T05:11:32;12.85;;;8.90;;
49177;SDS011;35016;55.674;37.468;2022-11-09T05:14:00;14.32;;;9.25;;
49177;SDS011;35016;55.674;37.468;2022-11-09T05:16:28;14.82;;;10.35;;
49177;SDS011;35016;55.674;37.468;2022-11-09T05:18:55;12.82;;;8.18;;
49177;SDS011;35016;55.674;37.468;2022-11-09T05:21:22;12.00;;;6.43;;
49177;SDS011;35016;55.674;37.468;2022-11-09T05:23:49;14.63;;;9.27;;
49177;SDS011;35016;55.674;37.468;2022-11-09T05:26:26;14.07;;;8.07;;
49177;SDS011;35016;55.674;37.468;2022-11-09T05:28:58;13.80;;;8.75;;
49177;SDS011;35016;55.674;37.468;2022-11-09T05:31:29;14.55;;;9.35;;
49177;SDS011;35016;55.674;37.468;2022-11-09T05:33:56;13.13;;;8.25;;
49177;SDS011;35016;55.674;37.468;2022-11-09T05:36:48;12.98;;;7.55;;
49177;SDS011;35016;55.674;37.468;2022-11-09T05:39:15;13.30;;;7.25;;
49177;SDS011;35016;55.674;37.468;2022-11-09T05:41:42;11.45;;;6.63;;
49177;SDS011;35016;55.674;37.468;2022-11-09T05:44:09;12.48;;;7.18;;
49177;SDS011;35016;55.674;37.468;2022-11-09T05:46:36;14.98;;;8.55;;
49177;SDS011;35016;55.674;37.468;2022-11-09T05:49:03;13.70;;;8.55;;
49177;SDS011;35016;55.674;37.468;2022-11-09T05:51:30;14.52;;;8.73;;
49177;SDS011;35016;55.674;37.468;2022-11-09T05:53:57;13.52;;;8.02;;
49177;SDS011;35016;55.674;37.468;2022-11-09T05:56:24;14.70;;;7.78;;
49177;SDS011;35016;55.674;37.468;2022-11-09T05:58:51;12.68;;;7.57;;
49177;SDS011;35016;55.674;37.468;2022-11-09T06:01:18;12.82;;;7.88;;
49177;SDS011;35016;55.674;37.468;2022-11-09T06:03:46;13.65;;;8.13;;
49177;SDS011;35016;55.674;37.468;2022-11-09T06:06:13;14.23;;;8.05;;
49177;SDS011;35016;55.674;37.468;2022-11-09T06:08:42;13.63;;;7.78;;
49177;SDS011;35016;55.674;37.468;2022-11-09T06:11:09;15.32;;;7.60;;
49177;SDS011;35016;55.674;37.468;2022-11-09T06:13:43;11.02;;;5.93;;
49177;SDS011;35016;55.674;37.468;2022-11-09T06:16:10;13.38;;;7.28;;
49177;SDS011;35016;55.674;37.468;2022-11-09T06:18:38;15.50;;;8.73;;
49177;SDS011;35016;55.674;37.468;2022-11-09T06:21:05;14.13;;;7.82;;
49177;SDS011;35016;55.674;37.468;2022-11-09T06:23:32;15.27;;;8.23;;
49177;SDS011;35016;55.674;37.468;2022-11-09T06:26:02;13.35;;;7.55;;
49177;SDS011;35016;55.674;37.468;2022-11-09T06:28:35;14.00;;;8.13;;
49177;SDS011;35016;55.674;37.468;2022-11-09T06:31:07;12.82;;;7.30;;
49177;SDS011;35016;55.674;37.468;2022-11-09T06:33:38;14.60;;;8.02;;
49177;SDS011;35016;55.674;37.468;2022-11-09T06:36:05;15.65;;;9.85;;
49177;SDS011;35016;55.674;37.468;2022-11-09T06:38:32;12.77;;;8.15;;
49177;SDS011;35016;55.674;37.468;2022-11-09T06:40:59;14.70;;;9.40;;
49177;SDS011;35016;55.674;37.468;2022-11-09T06:43:26;13.32;;;6.90;;
49177;SDS011;35016;55.674;37.468;2022-11-09T06:45:55;13.27;;;8.32;;
49177;SDS011;35016;55.674;37.468;2022-11-09T06:48:22;14.13;;;8.55;;
49177;SDS011;35016;55.674;37.468;2022-11-09T06:50:50;15.45;;;8.90;;
49177;SDS011;35016;55.674;37.468;2022-11-09T06:53:17;14.45;;;9.25;;
49177;SDS011;35016;55.674;37.468;2022-11-09T06:55:44;14.57;;;8.48;;
49177;SDS011;35016;55.674;37.468;2022-11-09T06:58:16;14.77;;;8.88;;
49177;SDS011;35016;55.674;37.468;2022-11-09T07:00:44;14.80;;;9.70;;
49177;SDS011;35016;55.674;37.468;2022-11-09T07:03:15;14.15;;;7.57;;
49177;SDS011;35016;55.674;37.468;2022-11-09T07:05:44;15.83;;;8.43;;
49177;SDS011;35016;55.674;37.468;2022-11-09T07:08:12;12.60;;;7.30;;
49177;SDS011;35016;55.674;37.468;2022-11-09T07:10:40;14.38;;;8.52;;
49177;SDS011;35016;55.674;37.468;2022-11-09T07:13:07;14.48;;;6.93;;
49177;SDS011;35016;55.674;37.468;2022-11-09T07:15:35;11.95;;;7.00;;
49177;SDS011;35016;55.674;37.468;2022-11-09T07:18:04;14.52;;;8.88;;
49177;SDS011;35016;55.674;37.468;2022-11-09T07:20:33;12.65;;;6.50;;
49177;SDS011;35016;55.674;37.468;2022-11-09T07:23:00;13.18;;;8.77;;
49177;SDS011;35016;55.674;37.468;2022-11-09T07:25:27;13.75;;;7.60;;
49177;SDS011;35016;55.674;37.468;2022-11-09T07:27:54;12.45;;;7.63;;
49177;SDS011;35016;55.674;37.468;2022-11-09T07:30:29;11.27;;;7.05;;
49177;SDS011;35016;55.674;37.468;2022-11-09T07:32:56;13.18;;;8.20;;
49177;SDS011;35016;55.674;37.468;2022-11-09T07:35:36;14.98;;;7.22;;
49177;SDS011;35016;55.674;37.468;2022-11-09T07:38:03;15.07;;;8.35;;
49177;SDS011;35016;55.674;37.468;2022-11-09T07:40:30;12.93;;;8.63;;
49177;SDS011;35016;55.674;37.468;2022-11-09T07:42:58;12.88;;;6.97;;
49177;SDS011;35016;55.674;37.468;2022-11-09T07:45:27;17.02;;;9.75;;
49177;SDS011;35016;55.674;37.468;2022-11-09T07:47:55;12.70;;;7.28;;
49177;SDS011;35016;55.674;37.468;2022-11-09T07:50:26;12.98;;;7.88;;
49177;SDS011;35016;55.674;37.468;2022-11-09T07:52:55;14.02;;;8.38;;
49177;SDS011;35016;55.674;37.468;2022-11-09T07:55:23;13.85;;;8.32;;
49177;SDS011;35016;55.674;37.468;2022-11-09T07:57:55;17.38;;;10.15;;
49177;SDS011;35016;55.674;37.468;2022-11-09T08:00:24;14.23;;;7.03;;
49177;SDS011;35016;55.674;37.468;2022-11-09T08:02:52;12.57;;;7.80;;
49177;SDS011;35016;55.674;37.468;2022-11-09T08:05:20;13.77;;;7.88;;
49177;SDS011;35016;55.674;37.468;2022-11-09T08:07:47;14.93;;;9.07;;
49177;SDS011;35016;55.674;37.468;2022-11-09T08:10:20;15.73;;;8.85;;
49177;SDS011;35016;55.674;37.468;2022-11-09T08:12:58;12.15;;;7.65;;
49177;SDS011;35016;55.674;37.468;2022-11-09T08:15:27;13.35;;;7.75;;
49177;SDS011;35016;55.674;37.468;2022-11-09T08:18:02;16.35;;;8.15;;
49177;SDS011;35016;55.674;37.468;2022-11-09T08:20:32;15.90;;;7.68;;
49177;SDS011;35016;55.674;37.468;2022-11-09T08:23:00;13.95;;;7.68;;
49177;SDS011;35016;55.674;37.468;2022-11-09T08:25:31;11.98;;;6.97;;
49177;SDS011;35016;55.674;37.468;2022-11-09T08:28:00;12.98;;;7.75;;
49177;SDS011;35016;55.674;37.468;2022-11-09T08:30:29;14.65;;;7.65;;
49177;SDS011;35016;55.674;37.468;2022-11-09T08:33:00;13.75;;;7.47;;
49177;SDS011;35016;55.674;37.468;2022-11-09T08:35:29;12.15;;;7.50;;
49177;SDS011;35016;55.674;37.468;2022-11-09T08:37:58;11.80;;;6.65;;
49177;SDS011;35016;55.674;37.468;2022-11-09T08:40:28;11.35;;;6.85;;
49177;SDS011;35016;55.674;37.468;2022-11-09T08:43:00;12.43;;;6.82;;
49177;SDS011;35016;55.674;37.468;2022-11-09T08:45:30;13.53;;;7.43;;
49177;SDS011;35016;55.674;37.468;2022-11-09T08:47:59;12.63;;;7.07;;
49177;SDS011;35016;55.674;37.468;2022-11-09T08:50:28;12.90;;;7.20;;
49177;SDS011;35016;55.674;37.468;2022-11-09T08:52:56;13.77;;;6.35;;
49177;SDS011;35016;55.674;37.468;2022-11-09T08:55:23;12.50;;;6.38;;
49177;SDS011;35016;55.674;37.468;2022-11-09T08:57:54;14.00;;;6.90;;
49177;SDS011;35016;55.674;37.468;2022-11-09T09:00:22;13.07;;;7.28;;
49177;SDS011;35016;55.674;37.468;2022-11-09T09:02:49;11.05;;;6.35;;
49177;SDS011;35016;55.674;37.468;2022-11-09T09:05:16;13.35;;;6.40;;
49177;SDS011;35016;55.674;37.468;2022-11-09T09:07:44;12.50;;;7.00;;
49177;SDS011;35016;55.674;37.468;2022-11-09T09:10:11;10.95;;;6.07;;
49177;SDS011;35016;55.674;37.468;2022-11-09T09:12:38;14.05;;;7.25;;
49177;SDS011;35016;55.674;37.468;2022-11-09T09:15:05;13.15;;;6.55;;
49177;SDS011;35016;55.674;37.468;2022-11-09T09:17:32;12.55;;;6.32;;
49177;SDS011;35016;55.674;37.468;2022-11-09T09:20:01;10.93;;;7.00;;
49177;SDS011;35016;55.674;37.468;2022-11-09T09:22:29;12.50;;;6.88;;
49177;SDS011;35016;55.674;37.468;2022-11-09T09:24:58;12.23;;;7.10;;
49177;SDS011;35016;55.674;37.468;2022-11-09T09:27:25;13.80;;;7.85;;
49177;SDS011;35016;55.674;37.468;2022-11-09T09:29:52;12.32;;;7.20;;
49177;SDS011;35016;55.674;37.468;2022-11-09T09:32:19;13.38;;;7.95;;
49177;SDS011;35016;55.674;37.468;2022-11-09T09:34:46;13.18;;;7.97;;
49177;SDS011;35016;55.674;37.468;2022-11-09T09:37:14;11.23;;;7.07;;
49177;SDS011;35016;55.674;37.468;2022-11-09T09:39:42;12.55;;;7.05;;
49177;SDS011;35016;55.674;37.468;2022-11-09T09:42:13;12.77;;;5.90;;
49177;SDS011;35016;55.674;37.468;2022-11-09T09:44:46;14.23;;;7.72;;
49177;SDS011;35016;55.674;37.468;2022-11-09T09:50:42;11.82;;;6.78;;
49177;SDS011;35016;55.674;37.468;2022-11-09T09:53:15;12.25;;;7.05;;
49177;SDS011;35016;55.674;37.468;2022-11-09T09:55:54;14.20;;;7.25;;
49177;SDS011;35016;55.674;37.468;2022-11-09T09:58:29;12.52;;;8.02;;
49177;SDS011;35016;55.674;37.468;2022-11-09T10:01:06;14.60;;;7.18;;
49177;SDS011;35016;55.674;37.468;2022-11-09T10:03:39;12.70;;;7.25;;
49177;SDS011;35016;55.674;37.468;2022-11-09T10:09:04;12.65;;;7.50;;
49177;SDS011;35016;55.674;37.468;2022-11-09T10:11:55;13.63;;;8.10;;
49177;SDS011;35016;55.674;37.468;2022-11-09T10:14:56;13.10;;;7.13;;
49177;SDS011;35016;55.674;37.468;2022-11-09T10:17:35;14.32;;;7.65;;
49177;SDS011;35016;55.674;37.468;2022-11-09T10:20:14;13.43;;;7.70;;
49177;SDS011;35016;55.674;37.468;2022-11-09T10:25:32;11.40;;;7.50;;
49177;SDS011;35016;55.674;37.468;2022-11-09T10:28:24;13.60;;;7.85;;
49177;SDS011;35016;55.674;37.468;2022-11-09T10:31:18;11.90;;;6.05;;
49177;SDS011;35016;55.674;37.468;2022-11-09T10:33:49;12.32;;;8.07;;
49177;SDS011;35016;55.674;37.468;2022-11-09T10:36:50;12.90;;;7.28;;
49177;SDS011;35016;55.674;37.468;2022-11-09T10:39:25;10.98;;;6.80;;
49177;SDS011;35016;55.674;37.468;2022-11-09T10:42:24;12.10;;;5.60;;
49177;SDS011;35016;55.674;37.468;2022-11-09T10:48:28;11.50;;;6.53;;
49177;SDS011;35016;55.674;37.468;2022-11-09T10:51:40;11.63;;;6.60;;
49177;SDS011;35016;55.674;37.468;2022-11-09T10:54:28;11.07;;;7.38;;
49177;SDS011;35016;55.674;37.468;2022-11-09T11:00:12;14.68;;;6.95;;
49177;SDS011;35016;55.674;37.468;2022-11-09T11:03:00;10.52;;;6.35;;
49177;SDS011;35016;55.674;37.468;2022-11-09T11:05:59;12.75;;;7.05;;
49177;SDS011;35016;55.674;37.468;2022-11-09T11:08:47;11.50;;;7.05;;
49177;SDS011;35016;55.674;37.468;2022-11-09T11:12:13;13.88;;;7.75;;
49177;SDS011;35016;55.674;37.468;2022-11-09T11:15:01;13.02;;;6.68;;
49177;SDS011;35016;55.674;37.468;2022-11-09T11:17:46;10.98;;;5.65;;
49177;SDS011;35016;55.674;37.468;2022-11-09T11:20:36;12.52;;;5.97;;
49177;SDS011;35016;55.674;37.468;2022-11-09T11:23:23;11.52;;;6.70;;
49177;SDS011;35016;55.674;37.468;2022-11-09T11:32:15;12.15;;;5.45;;
49177;SDS011;35016;55.674;37.468;2022-11-09T11:35:04;11.13;;;5.50;;
49177;SDS011;35016;55.674;37.468;2022-11-09T11:44:29;11.70;;;5.25;;
49177;SDS011;35016;55.674;37.468;2022-11-09T11:48:38;10.13;;;4.97;;
49177;SDS011;35016;55.674;37.468;2022-11-09T11:51:12;10.82;;;5.57;;
49177;SDS011;35016;55.674;37.468;2022-11-09T11:57:08;10.38;;;4.72;;
49177;SDS011;35016;55.674;37.468;2022-11-09T12:00:11;10.25;;;4.40;;
49177;SDS011;35016;55.674;37.468;2022-11-09T12:25:33;10.15;;;4.45;;
49177;SDS011;35016;55.674;37.468;2022-11-09T12:34:46;9.68;;;4.15;;
49177;SDS011;35016;55.674;37.468;2022-11-09T12:37:50;8.82;;;4.05;;
49177;SDS011;35016;55.674;37.468;2022-11-09T12:40:43;9.82;;;4.80;;
49177;SDS011;35016;55.674;37.468;2022-11-09T12:49:56;11.55;;;5.47;;
49177;SDS011;35016;55.674;37.468;2022-11-09T12:52:44;8.55;;;4.03;;
49177;SDS011;35016;55.674;37.468;2022-11-09T12:55:42;9.95;;;5.68;;
49177;SDS011;35016;55.674;37.468;2022-11-09T12:58:53;9.27;;;4.45;;
49177;SDS011;35016;55.674;37.468;2022-11-09T13:02:21;10.65;;;5.38;;
49177;SDS011;35016;55.674;37.468;2022-11-09T13:05:32;9.77;;;4.82;;
49177;SDS011;35016;55.674;37.468;2022-11-09T13:08:28;10.70;;;5.22;;
49177;SDS011;35016;55.674;37.468;2022-11-09T13:11:21;10.27;;;6.00;;
49177;SDS011;35016;55.674;37.468;2022-11-09T13:23:38;10.63;;;4.82;;
49177;SDS011;35016;55.674;37.468;2022-11-09T13:35:54;11.20;;;5.70;;
49177;SDS011;35016;55.674;37.468;2022-11-09T13:38:30;10.68;;;5.40;;
49177;SDS011;35016;55.674;37.468;2022-11-09T13:47:29;11.32;;;6.70;;
49177;SDS011;35016;55.674;37.468;2022-11-09T13:50:21;12.25;;;6.60;;
49177;SDS011;35016;55.674;37.468;2022-11-09T13:53:27;13.63;;;7.63;;
49177;SDS011;35016;55.674;37.468;2022-11-09T13:56:35;12.63;;;6.43;;
49177;SDS011;35016;55.674;37.468;2022-11-09T14:02:20;13.82;;;6.47;;
49177;SDS011;35016;55.674;37.468;2022-11-09T14:05:25;10.57;;;5.75;;
49177;SDS011;35016;55.674;37.468;2022-11-09T14:08:20;13.05;;;7.25;;
49177;SDS011;35016;55.674;37.468;2022-11-09T14:11:18;12.43;;;6.93;;
49177;SDS011;35016;55.674;37.468;2022-11-09T14:20:40;11.68;;;7.05;;
49177;SDS011;35016;55.674;37.468;2022-11-09T14:26:22;14.00;;;7.10;;
49177;SDS011;35016;55.674;37.468;2022-11-09T14:29:19;12.07;;;7.30;;
49177;SDS011;35016;55.674;37.468;2022-11-09T14:41:26;13.60;;;7.32;;
49177;SDS011;35016;55.674;37.468;2022-11-09T14:44:14;14.45;;;8.38;;
49177;SDS011;35016;55.674;37.468;2022-11-09T14:50:02;13.93;;;8.25;;
49177;SDS011;35016;55.674;37.468;2022-11-09T14:52:49;14.90;;;9.32;;
49177;SDS011;35016;55.674;37.468;2022-11-09T14:55:37;16.38;;;8.77;;
49177;SDS011;35016;55.674;37.468;2022-11-09T14:58:26;12.85;;;8.25;;
49177;SDS011;35016;55.674;37.468;2022-11-09T15:04:16;17.00;;;8.80;;
49177;SDS011;35016;55.674;37.468;2022-11-09T15:07:12;12.65;;;8.90;;
49177;SDS011;35016;55.674;37.468;2022-11-09T15:10:07;13.93;;;9.25;;
49177;SDS011;35016;55.674;37.468;2022-11-09T15:13:02;15.73;;;9.25;;
49177;SDS011;35016;55.674;37.468;2022-11-09T15:15:52;17.58;;;9.90;;
49177;SDS011;35016;55.674;37.468;2022-11-09T15:18:44;15.32;;;9.93;;
49177;SDS011;35016;55.674;37.468;2022-11-09T15:21:32;14.93;;;9.77;;
49177;SDS011;35016;55.674;37.468;2022-11-09T15:24:26;16.73;;;9.85;;
49177;SDS011;35016;55.674;37.468;2022-11-09T15:27:30;16.25;;;10.52;;
49177;SDS011;35016;55.674;37.468;2022-11-09T15:33:46;12.88;;;9.38;;
49177;SDS011;35016;55.674;37.468;2022-11-09T15:39:30;13.15;;;8.85;;
49177;SDS011;35016;55.674;37.468;2022-11-09T15:42:17;16.60;;;9.65;;
49177;SDS011;35016;55.674;37.468;2022-11-09T15:45:03;16.98;;;10.77;;
49177;SDS011;35016;55.674;37.468;2022-11-09T15:47:52;15.15;;;9.73;;
49177;SDS011;35016;55.674;37.468;2022-11-09T15:50:40;12.93;;;8.25;;
49177;SDS011;35016;55.674;37.468;2022-11-09T15:53:26;13.77;;;9.40;;
49177;SDS011;35016;55.674;37.468;2022-11-09T15:56:21;14.55;;;10.18;;
49177;SDS011;35016;55.674;37.468;2022-11-09T15:59:24;19.25;;;11.85;;
49177;SDS011;35016;55.674;37.468;2022-11-09T16:02:11;16.08;;;9.75;;
49177;SDS011;35016;55.674;37.468;2022-11-09T16:04:59;16.80;;;8.75;;
49177;SDS011;35016;55.674;37.468;2022-11-09T16:07:52;15.15;;;10.10;;
49177;SDS011;35016;55.674;37.468;2022-11-09T16:10:46;19.17;;;9.48;;
49177;SDS011;35016;55.674;37.468;2022-11-09T16:13:32;16.60;;;11.00;;
49177;SDS011;35016;55.674;37.468;2022-11-09T16:16:26;14.68;;;9.48;;
49177;SDS011;35016;55.674;37.468;2022-11-09T16:19:13;19.30;;;9.80;;
49177;SDS011;35016;55.674;37.468;2022-11-09T16:22:00;22.38;;;9.75;;
49177;SDS011;35016;55.674;37.468;2022-11-09T16:24:47;16.67;;;10.10;;
49177;SDS011;35016;55.674;37.468;2022-11-09T16:27:33;20.23;;;10.40;;
49177;SDS011;35016;55.674;37.468;2022-11-09T16:30:34;18.50;;;9.98;;
49177;SDS011;35016;55.674;37.468;2022-11-09T16:33:32;17.85;;;8.43;;
49177;SDS011;35016;55.674;37.468;2022-11-09T16:36:20;15.45;;;9.60;;
49177;SDS011;35016;55.674;37.468;2022-11-09T16:39:09;18.92;;;10.55;;
49177;SDS011;35016;55.674;37.468;2022-11-09T16:42:06;15.13;;;10.50;;
49177;SDS011;35016;55.674;37.468;2022-11-09T16:44:56;17.02;;;11.75;;
49177;SDS011;35016;55.674;37.468;2022-11-09T16:48:09;13.07;;;9.23;;
49177;SDS011;35016;55.674;37.468;2022-11-09T16:51:08;14.18;;;10.57;;
49177;SDS011;35016;55.674;37.468;2022-11-09T16:53:58;15.15;;;10.52;;
49177;SDS011;35016;55.674;37.468;2022-11-09T16:56:51;15.25;;;11.35;;
49177;SDS011;35016;55.674;37.468;2022-11-09T16:59:40;17.77;;;10.25;;
49177;SDS011;35016;55.674;37.468;2022-11-09T17:02:29;16.67;;;10.48;;
49177;SDS011;35016;55.674;37.468;2022-11-09T17:05:26;16.27;;;10.98;;
49177;SDS011;35016;55.674;37.468;2022-11-09T17:08:21;17.48;;;9.93;;
49177;SDS011;35016;55.674;37.468;2022-11-09T17:11:11;14.73;;;10.02;;
49177;SDS011;35016;55.674;37.468;2022-11-09T17:13:59;14.43;;;11.00;;
49177;SDS011;35016;55.674;37.468;2022-11-09T17:16:47;14.98;;;10.43;;
49177;SDS011;35016;55.674;37.468;2022-11-09T17:19:34;14.98;;;10.05;;
49177;SDS011;35016;55.674;37.468;2022-11-09T17:22:21;14.32;;;8.98;;
49177;SDS011;35016;55.674;37.468;2022-11-09T17:25:07;15.75;;;9.88;;
49177;SDS011;35016;55.674;37.468;2022-11-09T17:27:53;14.52;;;8.73;;
49177;SDS011;35016;55.674;37.468;2022-11-09T17:30:40;15.25;;;9.80;;
49177;SDS011;35016;55.674;37.468;2022-11-09T17:33:35;14.73;;;10.35;;